Time;durP1;ratioP1;P1;durP2;ratioP2;P2;SDS_P1;SDS_P2;PMS_P1;PMS_P2;Temp;Humidity;BMP_temperature;BMP_pressure;BME280_temperature;BME280_humidity;BME280_pressure;Samples;Min_cycle;Max_cycle;Signal;HPM_P1;HPM_P2
2022/12/14 00:01:52;;;;;;;17.97;11.23;;;;;;;0.09;62.71;99070.31;5052795;28;20861;-74
2022/12/14 00:04:18;;;;;;;17.70;11.30;;;;;;;0.10;62.38;99063.13;5051013;28;20935;-74
2022/12/14 00:06:43;;;;;;;18.67;10.57;;;;;;;0.12;62.83;99075.22;5052266;28;20409;-75
2022/12/14 00:09:09;;;;;;;17.47;10.60;;;;;;;0.12;62.40;99061.88;5038517;28;20402;-74
2022/12/14 00:11:34;;;;;;;19.37;11.27;;;;;;;0.12;62.73;99045.09;5032572;28;20819;-74
2022/12/14 00:14:01;;;;;;;20.10;10.93;;;;;;;0.11;62.58;99038.13;5042903;28;20415;-74
2022/12/14 00:16:29;;;;;;;18.25;10.85;;;;;;;0.10;62.42;99039.94;5053103;28;20411;-74
2022/12/14 00:18:56;;;;;;;22.42;11.80;;;;;;;0.10;62.60;99041.81;5038555;28;20973;-74
2022/12/14 00:21:22;;;;;;;19.67;10.73;;;;;;;0.11;62.58;99035.44;5054150;28;20412;-74
2022/12/14 00:23:51;;;;;;;20.17;10.40;;;;;;;0.08;62.84;99038.53;5053927;28;20743;-74
2022/12/14 00:26:25;;;;;;;23.70;11.37;;;;;;;0.05;62.58;99050.44;5040462;28;20567;-74
2022/12/14 00:28:52;;;;;;;19.80;11.48;;;;;;;0.06;62.86;99044.09;5044435;28;20892;-74
2022/12/14 00:31:18;;;;;;;18.88;10.98;;;;;;;0.09;62.95;99038.34;5053844;28;20408;-74
2022/12/14 00:33:44;;;;;;;20.27;11.07;;;;;;;0.10;63.12;99033.84;5046355;28;20401;-74
2022/12/14 00:36:11;;;;;;;19.95;10.73;;;;;;;0.09;63.37;99021.53;5052662;28;20397;-74
2022/12/14 00:38:37;;;;;;;18.85;11.57;;;;;;;0.00;64.03;99027.09;5046772;28;20394;-74
2022/12/14 00:41:02;;;;;;;21.05;12.38;;;;;;;-0.09;64.06;99024.88;5043042;28;20425;-75
2022/12/14 00:43:28;;;;;;;20.42;12.07;;;;;;;-0.15;64.29;99029.22;5053808;28;20880;-74
2022/12/14 00:45:54;;;;;;;22.02;11.77;;;;;;;-0.15;65.23;99023.06;5024517;28;20432;-74
2022/12/14 00:48:21;;;;;;;21.60;11.38;;;;;;;-0.06;64.85;99030.59;5046890;28;20500;-74
2022/12/14 00:50:47;;;;;;;21.60;12.53;;;;;;;0.02;64.58;99026.06;5053383;28;20447;-74
2022/12/14 00:53:12;;;;;;;22.63;12.50;;;;;;;-0.01;64.93;99040.63;5045419;28;20974;-74
2022/12/14 00:55:43;;;;;;;22.97;12.30;;;;;;;-0.03;64.82;99038.16;5050529;28;20456;-74
2022/12/14 00:58:10;;;;;;;21.08;12.88;;;;;;;0.00;65.05;99032.41;5041931;28;20469;-75
2022/12/14 01:00:36;;;;;;;21.52;12.75;;;;;;;0.02;65.17;99023.41;5039770;28;20405;-74
2022/12/14 01:03:02;;;;;;;22.50;12.68;;;;;;;0.05;65.27;99030.97;5029943;28;20393;-74
2022/12/14 01:05:27;;;;;;;20.58;12.05;;;;;;;0.06;65.90;99027.28;5047056;28;20404;-74
2022/12/14 01:07:53;;;;;;;29.93;13.83;;;;;;;0.05;65.57;99034.47;5036856;28;20401;-74
2022/12/14 01:10:18;;;;;;;21.73;13.20;;;;;;;0.05;66.29;99041.63;5053369;28;20741;-74
2022/12/14 01:12:43;;;;;;;24.00;13.37;;;;;;;0.07;66.50;99027.06;5053136;28;20392;-74
2022/12/14 01:15:09;;;;;;;23.60;13.63;;;;;;;0.08;66.40;99039.38;5053127;28;20389;-74
2022/12/14 01:17:34;;;;;;;24.83;13.30;;;;;;;0.10;66.34;99039.16;5040136;28;20399;-75
2022/12/14 01:19:59;;;;;;;26.20;14.75;;;;;;;0.10;66.50;99025.84;5021375;28;20410;-74
2022/12/14 01:22:25;;;;;;;28.80;15.27;;;;;;;0.10;66.58;99026.63;5043803;28;20431;-74
2022/12/14 01:24:50;;;;;;;25.37;13.97;;;;;;;0.10;67.00;99031.16;5052890;28;20912;-75
2022/12/14 01:27:15;;;;;;;25.17;14.57;;;;;;;0.04;66.98;99018.69;5046754;28;20434;-75
2022/12/14 01:29:40;;;;;;;27.90;15.93;;;;;;;-0.03;67.57;99019.53;5052799;28;20390;-74
2022/12/14 01:32:06;;;;;;;28.63;16.90;;;;;;;0.01;68.00;99019.94;5052857;28;20398;-74
2022/12/14 01:34:31;;;;;;;29.23;16.20;;;;;;;-0.04;68.03;99017.09;5041603;28;20882;-74
2022/12/14 01:36:57;;;;;;;28.00;16.37;;;;;;;0.00;67.87;99016.44;5031961;28;20479;-74
2022/12/14 01:39:22;;;;;;;30.23;16.07;;;;;;;0.06;67.62;99016.63;5052700;28;20753;-74
2022/12/14 01:41:51;;;;;;;28.33;16.20;;;;;;;0.09;68.02;99011.69;5052579;28;20390;-74
2022/12/14 01:44:16;;;;;;;28.95;16.77;;;;;;;0.12;67.99;99013.94;5047700;28;20397;-74
2022/12/14 01:46:42;;;;;;;30.70;16.47;;;;;;;0.13;67.82;99014.75;5019173;28;20435;-74
2022/12/14 01:49:40;;;;;;;32.47;16.60;;;;;;;0.14;67.89;99011.88;5036451;28;20376;-74
2022/12/14 01:52:26;;;;;;;27.38;15.93;;;;;;;0.12;68.37;99003.28;5050894;28;20936;-74
2022/12/14 01:54:55;;;;;;;36.05;17.23;;;;;;;0.14;67.95;99003.88;5035493;28;20428;-74
2022/12/14 01:57:25;;;;;;;34.03;16.65;;;;;;;0.14;68.29;98998.56;5039513;28;20411;-74
2022/12/14 01:59:50;;;;;;;28.88;15.80;;;;;;;0.14;68.53;98998.56;5050447;28;20381;-74
2022/12/14 02:02:17;;;;;;;26.73;16.55;;;;;;;0.13;68.47;98993.44;5035375;28;20918;-75
2022/12/14 02:04:50;;;;;;;35.25;16.38;;;;;;;0.13;68.61;99001.44;5050870;28;20425;-75
2022/12/14 02:07:16;;;;;;;31.75;16.40;;;;;;;0.13;68.43;98986.28;5048423;28;20768;-74
2022/12/14 02:09:44;;;;;;;28.20;16.17;;;;;;;0.10;68.88;98977.91;5045137;28;20399;-74
2022/12/14 02:12:16;;;;;;;29.15;15.70;;;;;;;-0.12;69.53;98972.88;5047227;28;20382;-74
2022/12/14 02:14:42;;;;;;;29.73;16.15;;;;;;;-0.16;69.79;98973.50;5041373;28;20515;-74
2022/12/14 02:17:10;;;;;;;30.58;16.48;;;;;;;-0.08;69.86;98978.59;5029872;28;20458;-75
2022/12/14 02:19:36;;;;;;;30.60;15.82;;;;;;;0.01;69.33;98972.00;5054030;28;20464;-75
2022/12/14 02:22:13;;;;;;;28.73;16.40;;;;;;;0.12;69.40;98973.16;5051927;28;20472;-74
2022/12/14 02:24:51;;;;;;;29.02;16.77;;;;;;;0.20;69.26;98981.72;5031180;28;20411;-75
2022/12/14 02:27:39;;;;;;;31.73;16.20;;;;;;;0.20;68.76;98980.91;5031203;28;20508;-74
2022/12/14 02:30:16;;;;;;;30.10;15.93;;;;;;;0.12;69.36;98979.31;5047433;28;20482;-75
2022/12/14 02:33:09;;;;;;;27.97;15.67;;;;;;;0.08;69.12;98979.94;5051903;28;20417;-75
2022/12/14 02:35:42;;;;;;;26.65;15.43;;;;;;;0.10;69.01;98973.38;5051578;28;20388;-75
2022/12/14 02:38:32;;;;;;;29.17;15.23;;;;;;;0.14;69.09;98973.75;5039264;28;20439;-74
2022/12/14 02:41:21;;;;;;;32.40;16.87;;;;;;;0.14;69.31;98979.09;5046972;28;20394;-74
2022/12/14 02:44:09;;;;;;;25.63;15.05;;;;;;;0.15;69.15;98978.88;5046366;28;20401;-74
2022/12/14 02:46:45;;;;;;;32.08;16.55;;;;;;;0.17;69.29;98976.81;5008692;28;20473;-74
2022/12/14 02:49:51;;;;;;;29.35;16.38;;;;;;;0.17;69.44;98982.13;5051517;28;20389;-74
2022/12/14 02:52:52;;;;;;;29.25;16.08;;;;;;;0.19;69.71;98969.44;5051667;28;20780;-74
2022/12/14 02:55:24;;;;;;;30.95;16.92;;;;;;;0.20;69.10;98967.59;5051173;28;20962;-74
2022/12/14 02:58:03;;;;;;;26.55;15.07;;;;;;;0.19;69.70;98956.13;5045152;28;20792;-74
2022/12/14 03:00:32;;;;;;;31.55;16.60;;;;;;;0.19;69.84;98964.13;5020068;28;20445;-74
2022/12/14 03:02:59;;;;;;;30.98;16.63;;;;;;;0.20;69.58;98957.72;5021067;28;20442;-74
2022/12/14 03:05:24;;;;;;;27.15;16.33;;;;;;;0.21;69.82;98958.56;5020660;28;20471;-75
2022/12/14 03:07:53;;;;;;;32.70;17.77;;;;;;;0.18;69.66;98959.81;5050052;28;20473;-74
2022/12/14 03:10:49;;;;;;;59.15;24.52;;;;;;;0.20;69.83;98938.28;5050112;28;20417;-74
2022/12/14 03:13:23;;;;;;;56.13;23.67;;;;;;;0.21;69.53;98947.91;5051129;28;20926;-74
2022/12/14 03:15:58;;;;;;;66.50;26.60;;;;;;;0.19;69.60;98950.78;5021866;28;20519;-75
2022/12/14 03:18:28;;;;;;;53.33;24.60;;;;;;;0.16;69.95;98943.22;5024219;28;20421;-74
2022/12/14 03:20:58;;;;;;;58.85;31.13;;;;;;;0.16;69.81;98945.06;5014353;28;20431;-74
2022/12/14 03:23:30;;;;;;;38.65;20.58;;;;;;;0.15;69.46;98938.94;5051729;28;20403;-74
2022/12/14 03:26:07;;;;;;;34.05;18.55;;;;;;;0.17;69.84;98930.72;5045700;28;20420;-74
2022/12/14 03:28:47;;;;;;;37.50;18.15;;;;;;;0.16;69.99;98929.09;5054978;28;20441;-74
2022/12/14 03:31:29;;;;;;;33.13;17.02;;;;;;;0.16;69.97;98927.25;5033979;28;20548;-74
2022/12/14 03:33:57;;;;;;;34.42;17.88;;;;;;;0.19;69.90;98931.31;5023331;28;20504;-74
2022/12/14 03:36:36;;;;;;;28.95;15.82;;;;;;;0.16;70.02;98916.59;5043620;28;20396;-74
2022/12/14 03:39:06;;;;;;;40.30;16.60;;;;;;;0.14;69.90;98910.66;5052300;28;20775;-74
2022/12/14 03:41:51;;;;;;;34.00;18.13;;;;;;;0.17;69.85;98910.22;5041579;28;20480;-74
2022/12/14 03:44:44;;;;;;;44.40;20.40;;;;;;;0.17;70.11;98909.41;5040368;28;20429;-74
2022/12/14 03:47:28;;;;;;;63.58;27.13;;;;;;;0.12;70.27;98903.91;5023239;28;20447;-74
2022/12/14 03:50:15;;;;;;;27.77;15.75;;;;;;;0.12;70.02;98898.59;5040179;28;20397;-74
2022/12/14 03:52:52;;;;;;;28.67;15.93;;;;;;;0.04;70.15;98891.66;5023600;28;20916;-74
2022/12/14 03:55:39;;;;;;;31.85;16.40;;;;;;;0.05;70.59;98887.16;5029663;28;20456;-74
2022/12/14 03:58:37;;;;;;;27.35;14.98;;;;;;;0.15;70.29;98890.16;5041481;28;20422;-74
2022/12/14 04:01:33;;;;;;;27.52;14.75;;;;;;;0.14;70.12;98891.19;5027645;28;20947;-74
2022/12/14 04:04:32;;;;;;;28.03;15.93;;;;;;;0.04;70.17;98891.66;5054245;28;20488;-74
2022/12/14 04:07:21;;;;;;;26.70;15.60;;;;;;;0.12;70.51;98891.41;5053838;28;20871;-74
2022/12/14 04:10:02;;;;;;;28.58;15.35;;;;;;;0.19;69.74;98894.84;5038971;28;20464;-74
2022/12/14 04:21:21;;;;;;;33.10;18.17;;;;;;;0.20;70.10;98887.69;5042215;28;20483;-74
2022/12/14 04:26:48;;;;;;;128.80;43.53;;;;;;;0.16;70.29;98894.47;5042068;28;25090;-74
2022/12/14 04:32:08;;;;;;;54.37;24.20;;;;;;;0.18;70.32;98885.22;5051132;28;25194;-74
2022/12/14 04:34:35;;;;;;;36.92;18.75;;;;;;;0.19;70.19;98889.53;5052169;28;20443;-74
2022/12/14 04:37:07;;;;;;;30.58;15.73;;;;;;;0.20;70.66;98890.34;5043660;28;20799;-74
2022/12/14 04:40:04;;;;;;;34.97;17.40;;;;;;;0.20;70.68;98887.69;5042551;28;20499;-74
2022/12/14 04:42:34;;;;;;;28.73;16.10;;;;;;;0.14;70.27;98875.19;5030837;28;20832;-74
2022/12/14 04:45:06;;;;;;;37.10;16.85;;;;;;;0.09;70.67;98875.88;5042698;28;20441;-74
2022/12/14 04:47:41;;;;;;;31.90;16.67;;;;;;;0.08;70.49;98873.41;5052908;28;20965;-74
2022/12/14 04:50:22;;;;;;;29.97;16.17;;;;;;;0.11;70.53;98865.81;5022912;28;20420;-74
2022/12/14 04:52:53;;;;;;;30.42;17.08;;;;;;;0.05;70.98;98871.19;5042259;28;20454;-75
2022/12/14 04:55:29;;;;;;;31.77;16.27;;;;;;;0.11;70.65;98876.47;5049532;28;20481;-75
2022/12/14 04:58:02;;;;;;;28.60;16.58;;;;;;;0.18;70.81;98884.41;5052946;28;20413;-74
2022/12/14 05:00:33;;;;;;;28.27;16.98;;;;;;;0.21;70.55;98878.63;5040068;28;20477;-72
2022/12/14 05:03:29;;;;;;;28.02;15.40;;;;;;;0.25;70.79;98878.00;5051568;28;20418;-75
2022/12/14 05:06:00;;;;;;;29.65;15.93;;;;;;;0.23;70.73;98871.25;5039988;28;20405;-75
2022/12/14 05:08:36;;;;;;;26.23;15.33;;;;;;;0.24;70.82;98883.53;5053055;28;20539;-75
2022/12/14 05:11:23;;;;;;;30.30;16.67;;;;;;;0.27;71.01;98880.44;5032264;28;20439;-75
2022/12/14 05:13:49;;;;;;;31.83;16.73;;;;;;;0.25;70.84;98871.84;5023807;28;20509;-75
2022/12/14 05:16:20;;;;;;;29.90;16.08;;;;;;;0.23;70.31;98864.06;5041812;28;20421;-75
2022/12/14 05:18:46;;;;;;;31.98;16.65;;;;;;;0.18;70.79;98855.09;5032656;28;20457;-75
2022/12/14 05:24:00;;;;;;;30.25;16.67;;;;;;;0.23;70.98;98863.28;5027575;28;20418;-72
2022/12/14 05:26:26;;;;;;;34.88;17.23;;;;;;;0.16;71.43;98854.50;5024163;28;20543;-74
2022/12/14 05:28:51;;;;;;;30.63;16.20;;;;;;;0.08;71.53;98847.59;5037318;28;20427;-74
2022/12/14 05:31:16;;;;;;;34.45;17.27;;;;;;;0.09;71.63;98851.06;5037427;28;20492;-74
2022/12/14 05:33:42;;;;;;;34.23;17.60;;;;;;;0.09;71.47;98851.91;5021024;28;20401;-74
2022/12/14 05:36:08;;;;;;;32.13;17.83;;;;;;;0.01;71.47;98849.47;5019796;28;20408;-74
2022/12/14 05:38:34;;;;;;;30.60;16.70;;;;;;;0.04;71.77;98841.06;5040785;28;20486;-75
2022/12/14 05:40:59;;;;;;;30.30;17.58;;;;;;;0.07;71.93;98834.50;5030796;28;20801;-74
2022/12/14 05:43:24;;;;;;;29.30;16.00;;;;;;;0.12;71.90;98847.97;5034543;28;20398;-74
2022/12/14 05:45:56;;;;;;;28.43;16.10;;;;;;;0.14;71.45;98844.06;5029416;28;20502;-74
2022/12/14 05:48:21;;;;;;;46.38;23.30;;;;;;;0.12;71.72;98840.81;5039694;28;20408;-74
2022/12/14 05:50:46;;;;;;;43.97;23.13;;;;;;;0.18;71.86;98834.59;5038655;28;20528;-75
2022/12/14 05:53:12;;;;;;;34.40;18.40;;;;;;;0.11;71.73;98822.38;5024175;28;20804;-74
2022/12/14 05:55:37;;;;;;;31.57;16.90;;;;;;;0.16;71.76;98823.38;5041433;28;20393;-74
2022/12/14 05:58:02;;;;;;;31.67;16.77;;;;;;;0.21;71.66;98820.03;5041818;28;20858;-74
2022/12/14 06:00:27;;;;;;;31.70;17.17;;;;;;;0.24;71.77;98824.91;5024906;28;20498;-74
2022/12/14 06:02:54;;;;;;;32.77;17.53;;;;;;;0.19;71.94;98820.25;5027190;28;20403;-74
2022/12/14 06:05:19;;;;;;;59.00;23.17;;;;;;;0.14;72.26;98816.59;5032578;28;20480;-74
2022/12/14 06:07:44;;;;;;;91.43;33.07;;;;;;;0.16;72.16;98815.38;5034240;28;20490;-74
2022/12/14 06:10:10;;;;;;;42.30;19.90;;;;;;;0.07;71.93;98815.88;5031009;28;20438;-74
2022/12/14 06:12:35;;;;;;;35.00;18.30;;;;;;;-0.08;72.29;98821.50;5033540;28;20436;-74
2022/12/14 06:15:00;;;;;;;30.02;17.25;;;;;;;-0.17;72.71;98815.63;5028744;28;20418;-75
2022/12/14 06:17:25;;;;;;;34.43;18.47;;;;;;;-0.22;72.91;98807.47;5022836;28;20407;-75
2022/12/14 06:19:51;;;;;;;33.40;18.60;;;;;;;-0.16;73.53;98801.28;5033472;28;20819;-74
2022/12/14 06:22:17;;;;;;;32.40;17.93;;;;;;;-0.13;73.35;98810.66;5049278;28;20401;-73
2022/12/14 06:24:42;;;;;;;35.00;18.13;;;;;;;-0.13;73.15;98806.16;5038029;28;20380;-74
2022/12/14 06:27:07;;;;;;;32.17;18.03;;;;;;;-0.12;73.66;98791.81;5029998;28;20474;-74
2022/12/14 06:29:33;;;;;;;29.87;16.77;;;;;;;0.00;73.41;98783.97;5043366;28;20415;-74
2022/12/14 06:31:59;;;;;;;34.08;18.02;;;;;;;0.08;72.96;98774.84;5043603;28;20413;-72
2022/12/14 06:34:25;;;;;;;33.53;18.13;;;;;;;0.13;72.95;98772.38;5036664;28;20390;-74
2022/12/14 06:36:50;;;;;;;50.50;28.73;;;;;;;0.10;73.04;98778.16;5040387;28;20804;-74
2022/12/14 06:39:16;;;;;;;34.20;17.77;;;;;;;-0.05;73.68;98773.13;5048698;28;20888;-74
2022/12/14 06:41:42;;;;;;;35.47;19.20;;;;;;;-0.21;74.22;98771.84;5046250;28;20390;-74
2022/12/14 06:44:11;;;;;;;47.05;24.58;;;;;;;-0.22;74.75;98748.06;5050047;28;20737;-74
2022/12/14 06:46:37;;;;;;;31.90;19.65;;;;;;;-0.09;74.70;98740.78;5039344;28;20411;-73
2022/12/14 06:49:04;;;;;;;30.70;18.95;;;;;;;0.05;73.91;98740.69;5045840;28;20411;-74
2022/12/14 06:51:31;;;;;;;34.17;17.77;;;;;;;0.11;73.70;98742.47;5033429;28;20758;-74
2022/12/14 06:53:57;;;;;;;33.58;18.38;;;;;;;0.15;73.84;98748.97;5051293;28;20397;-74
2022/12/14 06:56:25;;;;;;;36.60;18.47;;;;;;;0.04;73.86;98750.50;5045592;28;20490;-74
2022/12/14 06:58:51;;;;;;;31.27;18.25;;;;;;;-0.02;74.25;98751.41;5047000;28;20948;-74
2022/12/14 07:01:19;;;;;;;30.60;18.92;;;;;;;-0.16;75.28;98740.03;5047370;28;20423;-74
2022/12/14 07:03:53;;;;;;;34.42;17.80;;;;;;;-0.04;75.16;98748.97;5051052;28;20779;-74
2022/12/14 07:06:19;;;;;;;32.97;18.30;;;;;;;0.09;74.89;98760.53;5049517;28;20434;-74
2022/12/14 07:08:45;;;;;;;31.67;17.95;;;;;;;0.15;74.60;98759.63;5050013;28;20389;-74
2022/12/14 07:11:13;;;;;;;34.08;17.88;;;;;;;0.14;74.59;98761.47;5051158;28;20393;-74
2022/12/14 07:13:39;;;;;;;32.60;17.63;;;;;;;0.14;74.33;98769.47;5019486;28;20486;-75
2022/12/14 07:16:06;;;;;;;35.73;18.17;;;;;;;0.10;74.51;98765.63;5043038;28;20436;-74
2022/12/14 07:18:32;;;;;;;35.67;19.20;;;;;;;0.12;74.79;98771.56;5035074;28;20407;-74
2022/12/14 07:20:59;;;;;;;31.75;18.02;;;;;;;0.15;74.69;98759.63;5047254;28;20413;-74
2022/12/14 07:23:25;;;;;;;34.42;18.63;;;;;;;0.17;74.63;98755.72;5051062;28;20415;-74
2022/12/14 07:25:51;;;;;;;37.17;19.60;;;;;;;0.18;74.37;98752.03;5043952;28;20403;-74
2022/12/14 07:28:17;;;;;;;36.03;18.83;;;;;;;0.22;74.59;98742.56;5040925;28;20501;-74
2022/12/14 07:30:43;;;;;;;34.80;19.17;;;;;;;0.24;74.53;98740.50;5051112;28;20864;-74
2022/12/14 07:33:09;;;;;;;37.55;19.80;;;;;;;0.27;74.81;98739.22;5036244;28;20494;-74
2022/12/14 07:35:37;;;;;;;32.58;18.50;;;;;;;0.28;74.56;98739.03;5028574;28;20747;-74
2022/12/14 07:38:02;;;;;;;33.80;19.48;;;;;;;0.24;74.21;98743.16;5050670;28;20398;-74
2022/12/14 07:40:28;;;;;;;31.85;18.48;;;;;;;0.25;74.42;98738.66;5039358;28;20411;-74
2022/12/14 07:42:53;;;;;;;34.63;18.70;;;;;;;0.27;74.55;98734.72;5047917;28;20404;-74
2022/12/14 07:45:19;;;;;;;29.17;18.87;;;;;;;0.28;74.46;98732.88;5050623;28;20417;-75
2022/12/14 07:47:44;;;;;;;32.90;18.47;;;;;;;0.28;74.64;98732.88;5050365;28;20922;-74
2022/12/14 07:50:09;;;;;;;31.03;18.27;;;;;;;0.30;74.55;98738.78;5041759;28;20404;-74
2022/12/14 07:52:35;;;;;;;37.50;18.73;;;;;;;0.31;74.12;98737.75;5043928;28;20401;-74
2022/12/14 07:55:00;;;;;;;30.50;17.77;;;;;;;0.32;74.56;98742.06;5040364;28;20436;-74
2022/12/14 07:57:25;;;;;;;31.65;18.70;;;;;;;0.32;74.02;98745.53;5040315;28;20900;-74
2022/12/14 07:59:50;;;;;;;33.87;18.40;;;;;;;0.32;74.33;98742.88;5050855;28;20775;-74
2022/12/14 08:02:16;;;;;;;36.33;19.43;;;;;;;0.38;74.34;98743.84;5040793;28;20455;-74
2022/12/14 08:04:41;;;;;;;36.40;19.83;;;;;;;0.38;73.81;98736.66;5049514;28;20897;-75
2022/12/14 08:07:07;;;;;;;35.53;18.75;;;;;;;0.38;73.94;98739.31;5042006;28;20482;-74
2022/12/14 08:09:32;;;;;;;35.75;19.67;;;;;;;0.38;73.77;98738.50;5042832;28;20451;-74
2022/12/14 08:11:58;;;;;;;32.25;17.80;;;;;;;0.39;73.84;98746.28;5030063;28;20504;-75
2022/12/14 08:14:23;;;;;;;32.47;18.77;;;;;;;0.41;73.90;98743.38;5031855;28;20411;-74
2022/12/14 08:16:49;;;;;;;28.97;17.83;;;;;;;0.43;73.57;98738.66;5042098;28;20464;-74
2022/12/14 08:19:15;;;;;;;37.40;18.73;;;;;;;0.46;73.79;98748.88;5038674;28;20418;-74
2022/12/14 08:21:41;;;;;;;31.80;18.63;;;;;;;0.47;73.91;98753.16;5045438;28;20863;-74
2022/12/14 08:24:06;;;;;;;30.92;17.80;;;;;;;0.49;73.93;98746.56;5043988;28;20412;-74
2022/12/14 08:26:32;;;;;;;32.55;18.88;;;;;;;0.51;73.50;98727.69;5044967;28;20450;-74
2022/12/14 08:28:57;;;;;;;31.52;18.58;;;;;;;0.52;73.41;98713.34;5029676;28;20407;-74
2022/12/14 08:31:25;;;;;;;31.27;17.93;;;;;;;0.53;73.65;98702.44;5049039;28;20753;-74
2022/12/14 08:33:50;;;;;;;32.65;18.17;;;;;;;0.56;73.60;98705.72;5050764;28;20934;-73
2022/12/14 08:36:19;;;;;;;34.55;19.02;;;;;;;0.55;73.63;98694.25;5032647;28;20413;-73
2022/12/14 08:38:45;;;;;;;30.73;17.70;;;;;;;0.54;74.18;98703.28;5046436;28;20484;-73
2022/12/14 08:41:12;;;;;;;33.85;19.33;;;;;;;0.58;73.92;98706.31;5029111;28;20400;-73
2022/12/14 08:43:39;;;;;;;34.08;18.92;;;;;;;0.63;74.20;98709.09;5039033;28;20431;-74
2022/12/14 08:46:04;;;;;;;30.70;17.85;;;;;;;0.67;73.95;98696.97;5023060;28;20413;-73
2022/12/14 08:48:30;;;;;;;32.45;18.95;;;;;;;0.70;74.05;98697.31;5034323;28;20748;-73
2022/12/14 08:51:03;;;;;;;35.08;21.33;;;;;;;0.74;74.18;98692.38;5042569;28;20476;-74
2022/12/14 08:53:29;;;;;;;34.70;21.77;;;;;;;0.72;74.12;98692.59;5049303;28;20441;-74
2022/12/14 08:55:54;;;;;;;35.80;20.97;;;;;;;0.70;74.79;98689.34;5035123;28;20415;-74
2022/12/14 08:58:19;;;;;;;46.67;23.33;;;;;;;0.71;74.55;98698.16;5047656;28;20408;-74
2022/12/14 09:00:44;;;;;;;39.67;22.13;;;;;;;0.69;75.03;98702.91;5040298;28;20411;-74
2022/12/14 09:03:10;;;;;;;36.70;21.02;;;;;;;0.68;74.92;98710.06;5022675;28;20409;-74
2022/12/14 09:05:36;;;;;;;39.95;22.65;;;;;;;0.67;75.11;98721.78;5022768;28;20741;-74
2022/12/14 09:08:01;;;;;;;37.53;22.00;;;;;;;0.67;75.21;98718.28;5031559;28;20411;-74
2022/12/14 09:10:29;;;;;;;38.63;21.92;;;;;;;0.67;75.25;98723.63;5027325;28;20440;-74
2022/12/14 09:12:54;;;;;;;42.28;22.30;;;;;;;0.67;75.44;98721.78;5020344;28;20810;-74
2022/12/14 09:15:20;;;;;;;35.17;20.57;;;;;;;0.68;75.63;98719.91;5041078;28;20421;-74
2022/12/14 09:17:48;;;;;;;34.65;20.73;;;;;;;0.71;75.71;98732.81;5047286;28;20444;-74
2022/12/14 09:20:13;;;;;;;36.33;20.40;;;;;;;0.75;75.99;98744.66;5037982;28;20412;-74
2022/12/14 09:22:39;;;;;;;40.00;22.57;;;;;;;0.74;75.65;98740.34;5015809;28;20400;-74
2022/12/14 09:25:04;;;;;;;39.37;20.87;;;;;;;0.75;75.87;98734.00;5030958;28;20825;-74
2022/12/14 09:27:30;;;;;;;36.60;22.27;;;;;;;0.74;75.92;98743.03;5021993;28;20420;-74
2022/12/14 09:29:55;;;;;;;41.73;22.63;;;;;;;0.74;76.41;98737.69;5036800;28;20409;-74
2022/12/14 09:32:20;;;;;;;40.17;21.50;;;;;;;0.69;76.81;98734.88;5040862;28;20401;-74
2022/12/14 09:34:45;;;;;;;41.20;22.30;;;;;;;0.71;76.83;98744.28;5035734;28;20446;-74
2022/12/14 09:37:11;;;;;;;38.80;22.10;;;;;;;0.75;76.84;98740.16;5043824;28;20899;-73
2022/12/14 09:39:36;;;;;;;36.07;22.10;;;;;;;0.74;76.66;98735.03;5020133;28;20950;-74
2022/12/14 09:42:16;;;;;;;39.93;22.03;;;;;;;0.77;76.66;98735.38;5028911;28;20415;-74
2022/12/14 09:45:13;;;;;;;32.75;21.20;;;;;;;0.84;76.59;98729.97;5028576;28;20462;-74
2022/12/14 09:48:05;;;;;;;37.95;22.23;;;;;;;0.87;76.53;98724.19;5028370;28;20483;-74
2022/12/14 09:50:31;;;;;;;35.90;22.27;;;;;;;0.90;76.64;98723.75;5029575;28;20439;-73
2022/12/14 09:53:00;;;;;;;36.33;21.33;;;;;;;0.90;76.54;98726.41;5020696;28;20726;-74
2022/12/14 09:55:33;;;;;;;37.55;21.65;;;;;;;0.91;76.91;98710.19;5035489;28;21009;-74
2022/12/14 09:58:04;;;;;;;38.90;22.33;;;;;;;0.96;76.59;98717.50;5039158;28;20432;-74
2022/12/14 10:00:52;;;;;;;37.53;21.17;;;;;;;1.00;76.52;98724.03;5048698;28;20529;-74
2022/12/14 10:03:25;;;;;;;43.03;23.77;;;;;;;1.01;76.65;98717.66;5047811;28;20950;-74
2022/12/14 10:06:05;;;;;;;36.50;21.23;;;;;;;0.98;76.85;98724.25;5043303;28;20491;-74
2022/12/14 10:08:48;;;;;;;37.67;23.10;;;;;;;0.98;77.28;98718.94;5050169;28;20437;-74
2022/12/14 10:11:28;;;;;;;36.78;21.65;;;;;;;0.99;76.82;98719.72;5050865;28;20504;-74
2022/12/14 10:14:04;;;;;;;34.75;21.55;;;;;;;1.00;77.29;98727.50;5049808;28;20448;-74
2022/12/14 10:16:44;;;;;;;39.67;21.80;;;;;;;1.02;77.30;98727.28;5049150;28;20436;-74
2022/12/14 10:19:43;;;;;;;34.88;21.63;;;;;;;1.05;77.11;98726.84;5039741;28;20452;-74
2022/12/14 10:22:23;;;;;;;40.10;23.20;;;;;;;1.03;77.05;98736.91;5043792;28;20552;-73
2022/12/14 10:24:55;;;;;;;36.58;22.27;;;;;;;1.00;77.53;98735.50;5030449;28;20417;-74
2022/12/14 10:27:23;;;;;;;39.03;22.30;;;;;;;1.03;77.48;98740.38;5025830;28;20464;-74
2022/12/14 10:29:59;;;;;;;34.83;21.10;;;;;;;1.05;77.09;98740.19;5028253;28;20415;-74
2022/12/14 10:32:38;;;;;;;37.92;21.30;;;;;;;1.01;77.52;98736.31;5024566;28;20405;-74
2022/12/14 10:35:15;;;;;;;31.65;20.73;;;;;;;1.05;77.42;98732.19;5040446;28;20496;-74
2022/12/14 10:37:52;;;;;;;32.70;19.33;;;;;;;1.10;77.35;98732.31;5024584;28;20853;-74
2022/12/14 10:40:30;;;;;;;34.08;20.23;;;;;;;1.15;77.14;98727.13;5018019;28;20422;-74
2022/12/14 10:43:28;;;;;;;35.67;19.97;;;;;;;1.21;76.89;98728.06;5035239;28;20507;-74
2022/12/14 10:46:15;;;;;;;31.17;19.25;;;;;;;1.21;76.98;98720.06;5049539;28;20448;-73
2022/12/14 10:48:50;;;;;;;34.22;20.25;;;;;;;1.17;77.06;98722.34;5035751;28;20429;-74
2022/12/14 10:51:29;;;;;;;32.80;19.77;;;;;;;1.16;76.95;98725.22;5051610;28;20471;-74
2022/12/14 10:54:10;;;;;;;31.38;19.55;;;;;;;1.15;77.02;98723.63;5028200;28;20431;-74
2022/12/14 10:56:40;;;;;;;33.70;19.70;;;;;;;1.12;77.26;98724.09;5050848;28;20456;-74
2022/12/14 10:59:20;;;;;;;33.10;19.35;;;;;;;1.11;77.24;98722.44;5035274;28;20824;-74
2022/12/14 11:01:51;;;;;;;32.63;20.70;;;;;;;1.14;77.62;98730.81;5020614;28;20542;-74
2022/12/14 11:04:34;;;;;;;34.85;20.70;;;;;;;1.21;77.40;98726.19;5031959;28;20497;-74
2022/12/14 11:07:08;;;;;;;30.00;19.45;;;;;;;1.24;77.25;98723.09;5031848;28;20500;-73
2022/12/14 11:09:34;;;;;;;34.50;19.77;;;;;;;1.32;77.63;98725.41;5014083;28;20415;-74
2022/12/14 11:12:24;;;;;;;33.15;21.05;;;;;;;1.44;76.72;98728.13;5026065;28;20394;-73
2022/12/14 11:14:58;;;;;;;38.97;21.10;;;;;;;1.46;76.79;98726.84;5035853;28;20503;-73
2022/12/14 11:17:41;;;;;;;34.58;20.92;;;;;;;1.49;76.68;98725.56;5045091;28;20494;-74
2022/12/14 11:20:21;;;;;;;35.30;19.63;;;;;;;1.48;76.88;98738.09;5028611;28;20459;-73
2022/12/14 11:22:50;;;;;;;35.85;21.30;;;;;;;1.43;76.90;98731.84;5026102;28;20438;-73
2022/12/14 11:25:36;;;;;;;34.00;21.15;;;;;;;1.47;77.10;98719.66;5049484;28;20405;-73
2022/12/14 11:28:14;;;;;;;37.38;21.92;;;;;;;1.50;76.73;98712.00;5028492;28;20453;-73
2022/12/14 11:30:49;;;;;;;33.60;21.38;;;;;;;1.56;76.93;98724.44;5027020;28;20765;-73
2022/12/14 11:33:16;;;;;;;34.47;21.63;;;;;;;1.58;76.73;98731.41;5019899;28;20479;-73
2022/12/14 11:35:49;;;;;;;32.70;20.83;;;;;;;1.51;76.79;98728.84;5028302;28;20957;-74
2022/12/14 11:38:15;;;;;;;35.55;21.85;;;;;;;1.46;76.75;98737.53;5043831;28;20408;-73
2022/12/14 11:40:41;;;;;;;32.08;20.45;;;;;;;1.43;77.28;98742.50;5050739;28;20390;-73
2022/12/14 11:43:22;;;;;;;32.03;19.67;;;;;;;1.40;76.91;98743.78;5050959;28;20394;-73
2022/12/14 11:45:50;;;;;;;33.28;21.63;;;;;;;1.36;76.97;98747.94;5053481;28;20467;-74
2022/12/14 11:48:20;;;;;;;33.75;20.88;;;;;;;1.32;77.26;98743.28;5040026;28;20447;-73
2022/12/14 11:50:47;;;;;;;34.87;21.73;;;;;;;1.29;77.78;98741.06;5052312;28;20506;-74
2022/12/14 11:53:15;;;;;;;33.90;21.50;;;;;;;1.30;77.87;98754.19;5054918;28;20412;-73
2022/12/14 11:55:48;;;;;;;33.20;20.67;;;;;;;1.29;77.76;98752.56;5054169;28;20455;-73
2022/12/14 11:58:22;;;;;;;33.08;20.98;;;;;;;1.22;77.67;98735.03;5026132;28;20436;-74
2022/12/14 12:00:57;;;;;;;33.58;21.15;;;;;;;1.21;77.77;98725.38;5030765;28;20947;-74